PWSweather.com
Personal Weather Stations
Station Observations
KMNGREYC2
Grey Cloud Island, Grey Cloud Island, MN 55071

Grey Cloud IslandGrey Cloud Island, MN 55071

Lat: 44.799333, Lon: -92.987851

Elevation: 700

Station Type: Davis VP2

www.jagielski.com/weather/conditions.htm

High Low Average
Temperature 78.8°F26.0°C 52.3°F11.3°C 65.2°F18.4°C
Dew Point 66.7°F19.3°C 50.9°F10.5°C 58.6°F14.8°C
Winds 3.0 mph 4.8 kmh Calm Calm Calm SWCalm SW
Wind Gusts 7.0 mph11.3 kmh -- 2.0 mph3.2 kmh
Humidity 97% 55% 81%
Pressure 29.93 in1013.5 mb 29.85 in1010.8 mb -
Precipitation 0.00 in0.0 mm - -
Hour Temp Dew Point Humidity Winds Wind Gusts Pressure Precip Precip Rate Daily Precip Total
12:00 AM 57.0°F13.9°C 54.1°F12.3°C 90% Calm Calm -- 29.83 in1010.2 mb 0.00 in0.0 mm 0.00 in0.0 mm 0.00 in0.0 mm
12:15 AM 56.6°F13.7°C 54.0°F12.2°C 91% Calm Calm -- 29.84 in1010.5 mb 0.00 in0.0 mm 0.00 in0.0 mm 0.00 in0.0 mm
12:30 AM 56.2°F13.4°C 53.6°F12.0°C 91% Calm Calm -- 29.84 in1010.5 mb 0.00 in0.0 mm 0.00 in0.0 mm 0.00 in0.0 mm
12:45 AM 55.8°F13.2°C 53.2°F11.8°C 91% Calm Calm -- 29.85 in1010.8 mb 0.00 in0.0 mm 0.00 in0.0 mm 0.00 in0.0 mm
01:00 AM 55.4°F13.0°C 53.1°F11.7°C 92% Calm Calm -- 29.85 in1010.8 mb 0.00 in0.0 mm 0.00 in0.0 mm 0.00 in0.0 mm
01:15 AM 55.2°F12.9°C 52.9°F11.6°C 92% Calm Calm -- 29.86 in1011.2 mb 0.00 in0.0 mm 0.00 in0.0 mm 0.00 in0.0 mm
01:30 AM 54.9°F12.7°C 52.6°F11.4°C 92% Calm Calm -- 29.86 in1011.2 mb 0.00 in0.0 mm 0.00 in0.0 mm 0.00 in0.0 mm
01:45 AM 54.7°F12.6°C 52.7°F11.5°C 93% Calm Calm -- 29.86 in1011.2 mb 0.00 in0.0 mm 0.00 in0.0 mm 0.00 in0.0 mm
02:00 AM 54.6°F12.6°C 52.6°F11.4°C 93% Calm Calm -- 29.86 in1011.2 mb 0.00 in0.0 mm 0.00 in0.0 mm 0.00 in0.0 mm
02:15 AM 54.4°F12.4°C 52.4°F11.3°C 93% Calm Calm -- 29.86 in1011.2 mb 0.00 in0.0 mm 0.00 in0.0 mm 0.00 in0.0 mm
02:30 AM 54.4°F12.4°C 52.4°F11.3°C 93% Calm Calm -- 29.86 in1011.2 mb 0.00 in0.0 mm 0.00 in0.0 mm 0.00 in0.0 mm
02:45 AM 54.0°F12.2°C 52.0°F11.1°C 93% Calm Calm -- 29.87 in1011.5 mb 0.00 in0.0 mm 0.00 in0.0 mm 0.00 in0.0 mm
03:00 AM 53.8°F12.1°C 51.8°F11.0°C 93% Calm Calm -- 29.87 in1011.5 mb 0.00 in0.0 mm 0.00 in0.0 mm 0.00 in0.0 mm
03:15 AM 53.8°F12.1°C 52.1°F11.2°C 94% Calm Calm -- 29.88 in1011.9 mb 0.00 in0.0 mm 0.00 in0.0 mm 0.00 in0.0 mm
03:30 AM 53.6°F12.0°C 51.9°F11.1°C 94% Calm Calm -- 29.88 in1011.9 mb 0.00 in0.0 mm 0.00 in0.0 mm 0.00 in0.0 mm
03:45 AM 53.5°F11.9°C 51.8°F11.0°C 94% Calm Calm -- 29.88 in1011.9 mb 0.00 in0.0 mm 0.00 in0.0 mm 0.00 in0.0 mm
04:00 AM 53.3°F11.8°C 51.6°F10.9°C 94% Calm Calm -- 29.89 in1012.2 mb 0.00 in0.0 mm 0.00 in0.0 mm 0.00 in0.0 mm
04:15 AM 53.1°F11.7°C 51.4°F10.8°C 94% Calm Calm -- 29.89 in1012.2 mb 0.00 in0.0 mm 0.00 in0.0 mm 0.00 in0.0 mm
04:30 AM 53.1°F11.7°C 51.4°F10.8°C 94% Calm Calm -- 29.89 in1012.2 mb 0.00 in0.0 mm 0.00 in0.0 mm 0.00 in0.0 mm
04:45 AM 53.0°F11.7°C 51.3°F10.7°C 94% Calm Calm -- 29.89 in1012.2 mb 0.00 in0.0 mm 0.00 in0.0 mm 0.00 in0.0 mm
05:00 AM 52.8°F11.6°C 51.1°F10.6°C 94% Calm Calm -- 29.89 in1012.2 mb 0.00 in0.0 mm 0.00 in0.0 mm 0.00 in0.0 mm
05:15 AM 52.8°F11.6°C 51.1°F10.6°C 94% Calm Calm -- 29.89 in1012.2 mb 0.00 in0.0 mm 0.00 in0.0 mm 0.00 in0.0 mm
05:30 AM 52.8°F11.6°C 51.4°F10.8°C 95% Calm Calm -- 29.90 in1012.5 mb 0.00 in0.0 mm 0.00 in0.0 mm 0.00 in0.0 mm
05:45 AM 52.6°F11.4°C 51.2°F10.7°C 95% Calm Calm -- 29.91 in1012.9 mb 0.00 in0.0 mm 0.00 in0.0 mm 0.00 in0.0 mm
06:00 AM 52.4°F11.3°C 51.0°F10.6°C 95% Calm Calm -- 29.91 in1012.9 mb 0.00 in0.0 mm 0.00 in0.0 mm 0.00 in0.0 mm
06:15 AM 52.3°F11.3°C 50.9°F10.5°C 95% Calm Calm -- 29.91 in1012.9 mb 0.00 in0.0 mm 0.00 in0.0 mm 0.00 in0.0 mm
06:30 AM 52.3°F11.3°C 50.9°F10.5°C 95% Calm Calm -- 29.92 in1013.2 mb 0.00 in0.0 mm 0.00 in0.0 mm 0.00 in0.0 mm
06:45 AM 52.5°F11.4°C 51.1°F10.6°C 95% Calm Calm -- 29.92 in1013.2 mb 0.00 in0.0 mm 0.00 in0.0 mm 0.00 in0.0 mm
07:00 AM 52.5°F11.4°C 51.1°F10.6°C 95% Calm Calm -- 29.92 in1013.2 mb 0.00 in0.0 mm 0.00 in0.0 mm 0.00 in0.0 mm
07:15 AM 52.4°F11.3°C 51.0°F10.6°C 95% Calm Calm -- 29.92 in1013.2 mb 0.00 in0.0 mm 0.00 in0.0 mm 0.00 in0.0 mm
07:30 AM 52.5°F11.4°C 51.1°F10.6°C 95% Calm Calm -- 29.92 in1013.2 mb 0.00 in0.0 mm 0.00 in0.0 mm 0.00 in0.0 mm
07:45 AM 52.7°F11.5°C 51.6°F10.9°C 96% Calm Calm -- 29.92 in1013.2 mb 0.00 in0.0 mm 0.00 in0.0 mm 0.00 in0.0 mm
08:00 AM 53.3°F11.8°C 52.2°F11.2°C 96% Calm Calm -- 29.92 in1013.2 mb 0.00 in0.0 mm 0.00 in0.0 mm 0.00 in0.0 mm
08:15 AM 54.3°F12.4°C 53.5°F11.9°C 97% Calm Calm -- 29.92 in1013.2 mb 0.00 in0.0 mm 0.00 in0.0 mm 0.00 in0.0 mm
08:30 AM 55.6°F13.1°C 54.8°F12.7°C 97% Calm Calm -- 29.92 in1013.2 mb 0.00 in0.0 mm 0.00 in0.0 mm 0.00 in0.0 mm
08:45 AM 56.5°F13.6°C 55.7°F13.2°C 97% Calm Calm -- 29.92 in1013.2 mb 0.00 in0.0 mm 0.00 in0.0 mm 0.00 in0.0 mm
09:00 AM 57.3°F14.1°C 56.5°F13.6°C 97% Calm Calm -- 29.92 in1013.2 mb 0.00 in0.0 mm 0.00 in0.0 mm 0.00 in0.0 mm
09:15 AM 58.0°F14.4°C 57.2°F14.0°C 97% Calm Calm -- 29.92 in1013.2 mb 0.00 in0.0 mm 0.00 in0.0 mm 0.00 in0.0 mm
09:30 AM 58.6°F14.8°C 57.8°F14.3°C 97% Calm Calm -- 29.92 in1013.2 mb 0.00 in0.0 mm 0.00 in0.0 mm 0.00 in0.0 mm
09:45 AM 59.4°F15.2°C 58.6°F14.8°C 97% Calm Calm 1.0 mph1.6 kmh 29.92 in1013.2 mb 0.00 in0.0 mm 0.00 in0.0 mm 0.00 in0.0 mm
10:00 AM 60.5°F15.8°C 59.7°F15.4°C 97% Calm Calm 1.0 mph1.6 kmh 29.92 in1013.2 mb 0.00 in0.0 mm 0.00 in0.0 mm 0.00 in0.0 mm
10:15 AM 61.7°F16.5°C 60.3°F15.7°C 95% Calm Calm 1.0 mph1.6 kmh 29.92 in1013.2 mb 0.00 in0.0 mm 0.00 in0.0 mm 0.00 in0.0 mm
10:30 AM 63.3°F17.4°C 60.6°F15.9°C 91% Calm Calm 4.0 mph6.4 kmh 29.93 in1013.5 mb 0.00 in0.0 mm 0.00 in0.0 mm 0.00 in0.0 mm
10:45 AM 64.9°F18.3°C 60.3°F15.7°C 85% Calm Calm 3.0 mph4.8 kmh 29.93 in1013.5 mb 0.00 in0.0 mm 0.00 in0.0 mm 0.00 in0.0 mm
11:00 AM 66.5°F19.2°C 58.7°F14.8°C 76% Calm Calm 5.0 mph8.0 kmh 29.93 in1013.5 mb 0.00 in0.0 mm 0.00 in0.0 mm 0.00 in0.0 mm
11:15 AM 68.0°F20.0°C 58.7°F14.8°C 72% Calm Calm 6.0 mph9.7 kmh 29.93 in1013.5 mb 0.00 in0.0 mm 0.00 in0.0 mm 0.00 in0.0 mm
11:30 AM 69.3°F20.7°C 59.1°F15.1°C 70% 1.0 mph SW1.6 kmh SW 6.0 mph9.7 kmh 29.93 in1013.5 mb 0.00 in0.0 mm 0.00 in0.0 mm 0.00 in0.0 mm
11:45 AM 70.6°F21.4°C 58.3°F14.6°C 65% Calm Calm 4.0 mph6.4 kmh 29.93 in1013.5 mb 0.00 in0.0 mm 0.00 in0.0 mm 0.00 in0.0 mm
12:00 PM 71.8°F22.1°C 59.8°F15.4°C 66% 3.0 mph SW4.8 kmh SW 4.0 mph6.4 kmh 29.93 in1013.5 mb 0.00 in0.0 mm 0.00 in0.0 mm 0.00 in0.0 mm
12:15 PM 73.1°F22.8°C 60.2°F15.7°C 64% Calm Calm 4.0 mph6.4 kmh 29.93 in1013.5 mb 0.00 in0.0 mm 0.00 in0.0 mm 0.00 in0.0 mm
12:30 PM 74.1°F23.4°C 59.3°F15.2°C 60% Calm Calm 5.0 mph8.0 kmh 29.92 in1013.2 mb 0.00 in0.0 mm 0.00 in0.0 mm 0.00 in0.0 mm
12:45 PM 74.3°F23.5°C 60.0°F15.6°C 61% Calm Calm 6.0 mph9.7 kmh 29.92 in1013.2 mb 0.00 in0.0 mm 0.00 in0.0 mm 0.00 in0.0 mm
01:00 PM 74.4°F23.6°C 60.6°F15.9°C 62% Calm Calm 6.0 mph9.7 kmh 29.92 in1013.2 mb 0.00 in0.0 mm 0.00 in0.0 mm 0.00 in0.0 mm
01:15 PM 74.5°F23.6°C 60.6°F15.9°C 62% 3.0 mph SSW4.8 kmh SSW 4.0 mph6.4 kmh 29.92 in1013.2 mb 0.00 in0.0 mm 0.00 in0.0 mm 0.00 in0.0 mm
01:30 PM 74.8°F23.8°C 60.0°F15.6°C 60% Calm Calm 6.0 mph9.7 kmh 29.92 in1013.2 mb 0.00 in0.0 mm 0.00 in0.0 mm 0.00 in0.0 mm
01:45 PM 75.1°F23.9°C 61.7°F16.5°C 63% 1.0 mph SSW1.6 kmh SSW 4.0 mph6.4 kmh 29.92 in1013.2 mb 0.00 in0.0 mm 0.00 in0.0 mm 0.00 in0.0 mm
02:00 PM 75.6°F24.2°C 61.7°F16.5°C 62% Calm Calm 5.0 mph8.0 kmh 29.92 in1013.2 mb 0.00 in0.0 mm 0.00 in0.0 mm 0.00 in0.0 mm
02:15 PM 76.0°F24.4°C 61.6°F16.4°C 61% Calm Calm 5.0 mph8.0 kmh 29.92 in1013.2 mb 0.00 in0.0 mm 0.00 in0.0 mm 0.00 in0.0 mm
02:30 PM 76.6°F24.8°C 61.2°F16.2°C 59% Calm Calm 6.0 mph9.7 kmh 29.91 in1012.9 mb 0.00 in0.0 mm 0.00 in0.0 mm 0.00 in0.0 mm
02:45 PM 77.5°F25.3°C 62.1°F16.7°C 59% Calm Calm 5.0 mph8.0 kmh 29.91 in1012.9 mb 0.00 in0.0 mm 0.00 in0.0 mm 0.00 in0.0 mm
03:00 PM 78.4°F25.8°C 62.4°F16.9°C 58% Calm Calm 7.0 mph11.3 kmh 29.91 in1012.9 mb 0.00 in0.0 mm 0.00 in0.0 mm 0.00 in0.0 mm
03:15 PM 78.8°F26.0°C 61.3°F16.3°C 55% Calm Calm 3.0 mph4.8 kmh 29.90 in1012.5 mb 0.00 in0.0 mm 0.00 in0.0 mm 0.00 in0.0 mm
03:30 PM 78.6°F25.9°C 61.6°F16.4°C 56% 2.0 mph SSE3.2 kmh SSE 3.0 mph4.8 kmh 29.89 in1012.2 mb 0.00 in0.0 mm 0.00 in0.0 mm 0.00 in0.0 mm
03:45 PM 78.4°F25.8°C 61.4°F16.3°C 56% Calm Calm 4.0 mph6.4 kmh 29.89 in1012.2 mb 0.00 in0.0 mm 0.00 in0.0 mm 0.00 in0.0 mm
04:00 PM 78.5°F25.8°C 61.5°F16.4°C 56% 1.0 mph SW1.6 kmh SW 7.0 mph11.3 kmh 29.89 in1012.2 mb 0.00 in0.0 mm 0.00 in0.0 mm 0.00 in0.0 mm
04:15 PM 78.6°F25.9°C 62.6°F17.0°C 58% 2.0 mph SW3.2 kmh SW 6.0 mph9.7 kmh 29.89 in1012.2 mb 0.00 in0.0 mm 0.00 in0.0 mm 0.00 in0.0 mm
04:30 PM 78.6°F25.9°C 62.6°F17.0°C 58% Calm Calm 6.0 mph9.7 kmh 29.89 in1012.2 mb 0.00 in0.0 mm 0.00 in0.0 mm 0.00 in0.0 mm
04:45 PM 78.7°F25.9°C 62.2°F16.8°C 57% Calm Calm 5.0 mph8.0 kmh 29.88 in1011.9 mb 0.00 in0.0 mm 0.00 in0.0 mm 0.00 in0.0 mm
05:00 PM 78.8°F26.0°C 61.8°F16.6°C 56% Calm Calm 7.0 mph11.3 kmh 29.88 in1011.9 mb 0.00 in0.0 mm 0.00 in0.0 mm 0.00 in0.0 mm
05:15 PM 78.7°F25.9°C 62.7°F17.1°C 58% Calm Calm 6.0 mph9.7 kmh 29.89 in1012.2 mb 0.00 in0.0 mm 0.00 in0.0 mm 0.00 in0.0 mm
05:30 PM 78.5°F25.8°C 63.0°F17.2°C 59% Calm Calm 6.0 mph9.7 kmh 29.88 in1011.9 mb 0.00 in0.0 mm 0.00 in0.0 mm 0.00 in0.0 mm
05:45 PM 78.5°F25.8°C 62.5°F16.9°C 58% Calm Calm 5.0 mph8.0 kmh 29.87 in1011.5 mb 0.00 in0.0 mm 0.00 in0.0 mm 0.00 in0.0 mm
06:00 PM 78.3°F25.7°C 63.8°F17.7°C 61% Calm Calm 6.0 mph9.7 kmh 29.87 in1011.5 mb 0.00 in0.0 mm 0.00 in0.0 mm 0.00 in0.0 mm
06:15 PM 78.1°F25.6°C 64.5°F18.1°C 63% Calm Calm 3.0 mph4.8 kmh 29.87 in1011.5 mb 0.00 in0.0 mm 0.00 in0.0 mm 0.00 in0.0 mm
06:30 PM 77.8°F25.4°C 66.0°F18.9°C 67% Calm Calm 3.0 mph4.8 kmh 29.87 in1011.5 mb 0.00 in0.0 mm 0.00 in0.0 mm 0.00 in0.0 mm
06:45 PM 77.3°F25.2°C 65.5°F18.6°C 67% Calm Calm 1.0 mph1.6 kmh 29.87 in1011.5 mb 0.00 in0.0 mm 0.00 in0.0 mm 0.00 in0.0 mm
07:00 PM 76.6°F24.8°C 65.3°F18.5°C 68% Calm Calm 1.0 mph1.6 kmh 29.87 in1011.5 mb 0.00 in0.0 mm 0.00 in0.0 mm 0.00 in0.0 mm
07:15 PM 76.1°F24.5°C 66.0°F18.9°C 71% Calm Calm 3.0 mph4.8 kmh 29.86 in1011.2 mb 0.00 in0.0 mm 0.00 in0.0 mm 0.00 in0.0 mm
07:30 PM 75.6°F24.2°C 66.3°F19.1°C 73% Calm Calm 3.0 mph4.8 kmh 29.87 in1011.5 mb 0.00 in0.0 mm 0.00 in0.0 mm 0.00 in0.0 mm
07:45 PM 74.8°F23.8°C 66.4°F19.1°C 75% Calm Calm -- 29.87 in1011.5 mb 0.00 in0.0 mm 0.00 in0.0 mm 0.00 in0.0 mm
08:00 PM 73.6°F23.1°C 66.7°F19.3°C 79% Calm Calm -- 29.87 in1011.5 mb 0.00 in0.0 mm 0.00 in0.0 mm 0.00 in0.0 mm
08:15 PM 72.7°F22.6°C 65.8°F18.8°C 79% Calm Calm -- 29.87 in1011.5 mb 0.00 in0.0 mm 0.00 in0.0 mm 0.00 in0.0 mm
08:30 PM 71.6°F22.0°C 65.1°F18.4°C 80% Calm Calm -- 29.87 in1011.5 mb 0.00 in0.0 mm 0.00 in0.0 mm 0.00 in0.0 mm
08:45 PM 70.4°F21.3°C 64.7°F18.2°C 82% Calm Calm -- 29.87 in1011.5 mb 0.00 in0.0 mm 0.00 in0.0 mm 0.00 in0.0 mm
09:00 PM 69.3°F20.7°C 63.9°F17.7°C 83% Calm Calm -- 29.88 in1011.9 mb 0.00 in0.0 mm 0.00 in0.0 mm 0.00 in0.0 mm
09:15 PM 68.3°F20.2°C 63.6°F17.6°C 85% Calm Calm -- 29.89 in1012.2 mb 0.00 in0.0 mm 0.00 in0.0 mm 0.00 in0.0 mm
09:30 PM 67.6°F19.8°C 63.3°F17.4°C 86% Calm Calm -- 29.89 in1012.2 mb 0.00 in0.0 mm 0.00 in0.0 mm 0.00 in0.0 mm
09:45 PM 67.0°F19.4°C 63.0°F17.2°C 87% Calm Calm -- 29.89 in1012.2 mb 0.00 in0.0 mm 0.00 in0.0 mm 0.00 in0.0 mm
10:00 PM 66.4°F19.1°C 62.7°F17.1°C 88% Calm Calm -- 29.90 in1012.5 mb 0.00 in0.0 mm 0.00 in0.0 mm 0.00 in0.0 mm
10:15 PM 65.9°F18.8°C 62.6°F17.0°C 89% Calm Calm -- 29.90 in1012.5 mb 0.00 in0.0 mm 0.00 in0.0 mm 0.00 in0.0 mm
10:30 PM 65.5°F18.6°C 62.5°F16.9°C 90% Calm Calm -- 29.90 in1012.5 mb 0.00 in0.0 mm 0.00 in0.0 mm 0.00 in0.0 mm
10:45 PM 65.1°F18.4°C 62.1°F16.7°C 90% Calm Calm -- 29.91 in1012.9 mb 0.00 in0.0 mm 0.00 in0.0 mm 0.00 in0.0 mm
11:00 PM 64.8°F18.2°C 61.8°F16.6°C 90% Calm Calm -- 29.91 in1012.9 mb 0.00 in0.0 mm 0.00 in0.0 mm 0.00 in0.0 mm
11:15 PM 64.5°F18.1°C 61.8°F16.6°C 91% Calm Calm -- 29.91 in1012.9 mb 0.00 in0.0 mm 0.00 in0.0 mm 0.00 in0.0 mm
11:30 PM 64.3°F17.9°C 61.6°F16.4°C 91% Calm Calm -- 29.91 in1012.9 mb 0.00 in0.0 mm 0.00 in0.0 mm 0.00 in0.0 mm
11:45 PM 64.0°F17.8°C 61.6°F16.4°C 92% Calm Calm -- 29.91 in1012.9 mb 0.00 in0.0 mm 0.00 in0.0 mm 0.00 in0.0 mm